Tropical Cyclones
[Index]
Main Index Home Page Stock Weather Photos Extreme Storms Discussion Storm News and Storm Chasing Reports Tropical Cyclones / Hurricanes / Typhoons Weather Data and Links Wild Fires / Bushfires Weather Observation Techniques Weather Picture Catalogue Tornado Pictures and Reports Stock Video Footage and DVDs for sale
Season 1989-1990 Tropical Cyclone NANCY Track Map
Season 1989-1990 Summaries: [BoM-AU] [JTWC-AU] [JTWC-SIO] [JTWC-SPAC] [JTWC-SH]
<<- Previous TC | BoM 1989-1990 Season | Next TC ->>

click for intensity scale information  Lat/long Grid: Show Hide

 Date Labels: Show Hide

Bureau of Meteorology Tropical Cyclone Data

Name: NANCY
Number: 724 / 198990_05

28 Jan 1990 06:00 UTC to 04 Feb 1990 12:00 UTC

    date/time    lat    long    hPa   cat  kts
1990-01-28 06   18.3   156.0   1000         12          
1990-01-28 12   18.3   155.0   1000         12          
1990-01-28 18   17.7   154.1    999         19          
1990-01-29 00   17.0   153.0    998         29          
1990-01-29 06   16.6   152.2    995    1    33          
1990-01-29 12   15.9   151.9    995    1    33          
1990-01-29 18   15.0   152.6    995    1    33          
1990-01-30 00   14.8   154.0    995    1    33          
1990-01-30 06   14.8   155.5    995    1    35          
1990-01-30 12   14.8   156.8    991    1    37          
1990-01-30 18   15.5   158.4    991    1    37          
1990-01-31 00   16.8   159.9    990    1    41          
1990-01-31 06   18.0   160.5    988    1    43          
1990-01-31 12   19.3   160.7    988    1    47          
1990-01-31 18   21.3   160.7    980    2    49          
1990-02-01 00   23.1   159.8    980    2    51          
1990-02-01 06   25.3   156.8    975    2    54          
1990-02-01 12   25.4   155.0    980    2    49          
1990-02-01 18   24.9   154.9    985    2    43          
1990-02-02 00   25.9   154.8    985    2    43          
1990-02-02 06   27.2   154.1    980    2    41          
1990-02-02 12   27.0   153.8    980    2    41          
1990-02-02 18   27.7   153.7    980    2    37          
1990-02-03 00   28.1   153.8    980    2    37          
1990-02-03 06   29.1   153.9    980    2    35          
1990-02-03 12   29.6   153.8    985    2    33          
1990-02-03 18   30.5   153.8    986    1    29          
1990-02-04 00   31.4   154.0    989    1    27          
1990-02-04 06   32.9   154.0    990    1    21          
1990-02-04 12   34.5   155.0    995    1    16          
Winds are 10-min average.

Tropical cyclone tracks developed by Michael Bath using data from the Bureau of Meteorology and Google Maps.


[Australian Severe Weather index] [Copyright Notice] [Email Contacts] [Search This Site] [Privacy Policy]
Document: tropical_cyclone_nancy.htm Updated: 30 May 2013